This is the latest recevied weather packets stored in our database for station/object DO7CRZ-11. If no packets are shown the sender has not sent any weather packets the latest 10 day(s).
| Time | Temp. | Humidity | Pressure | Rain* | Wind** | Luminosity | Snow |
|---|---|---|---|---|---|---|---|
| 1777633331 | 20° C | 39% | 1028.5 hPa | 0 mm | - | 698 W/m² | - |
| 1777632734 | 20° C | 41% | 1028.6 hPa | 0 mm | - | 700 W/m² | - |
| 1777632127 | 19.44° C | 40% | 1028.6 hPa | 0 mm | - | 699 W/m² | - |
| 1777631530 | 19.44° C | 42% | 1028.7 hPa | 0 mm | - | 700 W/m² | - |
| 1777630934 | 19.44° C | 41% | 1028.7 hPa | 0 mm | - | 691 W/m² | - |
| 1777630327 | 19.44° C | 41% | 1028.8 hPa | 0 mm | - | 684 W/m² | - |
| 1777629730 | 19.44° C | 43% | 1028.8 hPa | 0 mm | - | 674 W/m² | - |
| 1777629134 | 18.89° C | 42% | 1028.9 hPa | 0 mm | - | 661 W/m² | - |
| 1777628527 | 18.89° C | 42% | 1029 hPa | 0 mm | - | 662 W/m² | - |
| 1777627930 | 18.33° C | 42% | 1029.1 hPa | 0 mm | - | 655 W/m² | - |
| 1777627334 | 18.33° C | 42% | 1029.1 hPa | 0 mm | - | 641 W/m² | - |
| 1777626728 | 18.33° C | 43% | 1029.1 hPa | 0 mm | - | 629 W/m² | - |
| 1777626131 | 18.33° C | 42% | 1029.1 hPa | 0 mm | - | 614 W/m² | - |
| 1777625534 | 18.33° C | 44% | 1029.2 hPa | 0 mm | - | 596 W/m² | - |
| 1777624927 | 17.78° C | 43% | 1029.2 hPa | 0 mm | - | 581 W/m² | - |
| 1777623734 | 17.78° C | 46% | 1029.2 hPa | 0 mm | - | 547 W/m² | - |
| 1777623128 | 17.22° C | 46% | 1029.3 hPa | 0 mm | - | 525 W/m² | - |
| 1777622530 | 17.22° C | 47% | 1029.3 hPa | 0 mm | - | 507 W/m² | - |
| 1777621933 | 16.67° C | 49% | 1029.3 hPa | 0 mm | - | 488 W/m² | - |
| 1777621327 | 16.67° C | 52% | 1029.2 hPa | 0 mm | - | 464 W/m² | - |
| 1777620730 | 16.11° C | 55% | 1029.2 hPa | 0 mm | - | 438 W/m² | - |
| 1777620134 | 15.56° C | 58% | 1029.3 hPa | 0 mm | - | 412 W/m² | - |
| 1777619527 | 15° C | 60% | 1029.3 hPa | 0 mm | - | 382 W/m² | - |
| 1777618334 | 13.89° C | 62% | 1029.2 hPa | 0 mm | - | 337 W/m² | - |
| 1777617131 | 12.78° C | 67% | 1029.2 hPa | 0 mm | - | 284 W/m² | - |
* Rain latest hour (hover to see other rain measurements)
** Current wind speed in m/s (hover to see current wind gust speed)